Time;durP1;ratioP1;P1;durP2;ratioP2;P2;SDS_P1;SDS_P2;PMS_P1;PMS_P2;Temp;Humidity;BMP_temperature;BMP_pressure;BME280_temperature;BME280_humidity;BME280_pressure;Samples;Min_cycle;Max_cycle;Signal;HPM_P1;HPM_P2
2023/08/14 00:01:08;;;;;;;8.10;3.10;;;16.40;99.90;;;;;;5096207;28;20089;-70
2023/08/14 00:03:34;;;;;;;8.13;3.10;;;16.40;99.90;;;;;;5096160;28;20114;-70
2023/08/14 00:05:59;;;;;;;5.33;2.67;;;16.40;99.90;;;;;;5095579;28;20079;-70
2023/08/14 00:08:25;;;;;;;5.00;2.70;;;16.40;99.90;;;;;;5094808;28;20040;-70
2023/08/14 00:10:51;;;;;;;4.90;2.70;;;16.30;99.90;;;;;;5095744;28;20097;-70
2023/08/14 00:13:21;;;;;;;5.77;2.57;;;16.30;99.90;;;;;;5095687;28;20044;-70
2023/08/14 00:15:50;;;;;;;6.00;2.80;;;16.30;99.90;;;;;;5095984;28;20043;-70
2023/08/14 00:18:16;;;;;;;5.17;2.70;;;16.30;99.90;;;;;;5095929;28;20120;-70
2023/08/14 00:20:43;;;;;;;5.07;2.60;;;16.30;99.90;;;;;;5094524;28;20050;-71
2023/08/14 00:23:09;;;;;;;5.77;2.93;;;16.30;99.90;;;;;;5095765;28;20032;-70
2023/08/14 00:25:34;;;;;;;5.70;2.70;;;16.30;99.90;;;;;;5095773;28;20096;-69
2023/08/14 00:28:00;;;;;;;7.07;3.03;;;16.30;99.90;;;;;;5095323;28;20504;-69
2023/08/14 00:30:26;;;;;;;6.40;2.50;;;16.30;99.90;;;;;;5094128;28;20040;-70
2023/08/14 00:32:51;;;;;;;6.00;2.80;;;16.30;99.90;;;;;;5095170;28;20051;-70
2023/08/14 00:35:17;;;;;;;8.53;3.10;;;16.30;99.90;;;;;;5094366;28;20040;-70
2023/08/14 00:37:48;;;;;;;6.13;2.90;;;16.30;99.90;;;;;;5095620;28;20048;-70
2023/08/14 00:40:15;;;;;;;5.60;3.10;;;16.30;99.90;;;;;;5094641;28;20039;-70
2023/08/14 00:42:42;;;;;;;7.33;2.90;;;16.30;99.90;;;;;;5095467;28;20048;-70
2023/08/14 00:45:09;;;;;;;6.33;2.97;;;16.30;99.90;;;;;;5095158;28;20055;-70
2023/08/14 00:47:38;;;;;;;7.13;2.70;;;16.30;99.90;;;;;;5095318;28;20492;-70
2023/08/14 00:50:05;;;;;;;6.37;2.93;;;16.30;99.90;;;;;;5095043;28;20044;-70
2023/08/14 00:52:34;;;;;;;7.10;2.90;;;16.30;99.90;;;;;;5093976;28;20379;-70
2023/08/14 00:55:02;;;;;;;7.57;3.90;;;16.30;99.90;;;;;;5094961;28;20069;-70
2023/08/14 00:57:31;;;;;;;6.77;3.27;;;16.30;99.90;;;;;;5095449;28;20093;-70
2023/08/14 00:59:58;;;;;;;5.60;3.20;;;16.30;99.90;;;;;;5094932;28;20044;-70
2023/08/14 01:02:24;;;;;;;7.43;3.40;;;16.30;99.90;;;;;;5095118;28;20168;-70
2023/08/14 01:04:50;;;;;;;7.73;2.90;;;16.30;99.90;;;;;;5094724;28;20047;-70
2023/08/14 01:07:16;;;;;;;5.87;3.10;;;16.30;99.90;;;;;;5094987;28;20040;-70
2023/08/14 01:09:42;;;;;;;8.17;3.27;;;16.20;99.90;;;;;;5094935;28;20052;-70
2023/08/14 01:12:20;;;;;;;5.03;3.20;;;16.20;99.90;;;;;;5094598;28;20563;-70
2023/08/14 01:14:51;;;;;;;6.47;3.20;;;16.10;99.90;;;;;;5094807;28;20043;-70
2023/08/14 01:17:18;;;;;;;5.30;3.30;;;16.10;99.90;;;;;;5094858;28;20040;-70
2023/08/14 01:19:49;;;;;;;5.90;3.47;;;16.20;99.90;;;;;;5093770;28;20055;-70
2023/08/14 01:22:52;;;;;;;5.67;2.83;;;16.10;99.90;;;;;;5093424;28;20081;-70
2023/08/14 01:25:33;;;;;;;6.00;3.07;;;16.10;99.90;;;;;;5094765;28;20047;-70
2023/08/14 01:28:01;;;;;;;5.70;2.90;;;16.00;99.90;;;;;;5093364;28;20468;-70
2023/08/14 01:30:27;;;;;;;7.10;3.53;;;16.00;99.90;;;;;;5094502;28;20092;-70
2023/08/14 01:32:53;;;;;;;7.63;3.37;;;16.00;99.90;;;;;;5092966;28;20134;-70
2023/08/14 01:35:21;;;;;;;5.60;3.20;;;16.10;99.90;;;;;;5093138;28;20047;-70
2023/08/14 01:38:02;;;;;;;6.13;3.07;;;16.00;99.90;;;;;;5093096;28;20048;-70
2023/08/14 01:40:39;;;;;;;7.80;3.10;;;16.00;99.90;;;;;;5094393;28;20049;-70
2023/08/14 01:43:12;;;;;;;8.60;3.83;;;16.00;99.90;;;;;;5094119;28;20345;-70
2023/08/14 01:45:39;;;;;;;6.00;3.27;;;16.00;99.90;;;;;;5094224;28;20051;-70
2023/08/14 01:48:07;;;;;;;7.07;3.50;;;16.00;99.90;;;;;;5093923;28;20163;-70
2023/08/14 01:50:34;;;;;;;6.93;3.37;;;16.00;99.90;;;;;;5094099;28;20109;-70
2023/08/14 01:53:00;;;;;;;6.20;3.67;;;15.90;99.90;;;;;;5092469;28;20036;-70
2023/08/14 01:55:26;;;;;;;5.53;3.70;;;15.90;99.90;;;;;;5094092;28;20044;-70
2023/08/14 01:57:52;;;;;;;8.50;3.47;;;15.90;99.90;;;;;;5093418;28;20044;-70
2023/08/14 02:00:19;;;;;;;7.00;3.93;;;15.90;99.90;;;;;;5093751;28;20043;-70
2023/08/14 02:02:44;;;;;;;5.80;3.63;;;15.90;99.90;;;;;;5093957;28;20044;-70
2023/08/14 02:05:10;;;;;;;5.40;3.47;;;15.90;99.90;;;;;;5093636;28;20071;-70
2023/08/14 02:07:36;;;;;;;7.03;3.67;;;15.90;99.90;;;;;;5093890;28;20043;-70
2023/08/14 02:10:02;;;;;;;10.60;4.03;;;15.90;99.90;;;;;;5075792;28;20047;-70
2023/08/14 02:12:30;;;;;;;8.20;3.37;;;15.90;99.90;;;;;;5092931;28;20101;-70
2023/08/14 02:14:56;;;;;;;8.43;3.87;;;15.90;99.90;;;;;;5093368;28;20040;-70
2023/08/14 02:17:22;;;;;;;7.23;3.47;;;15.90;99.90;;;;;;5093690;28;20059;-70
2023/08/14 02:19:47;;;;;;;8.03;4.30;;;15.90;99.90;;;;;;5093861;28;20043;-70
2023/08/14 02:22:13;;;;;;;7.57;4.00;;;15.90;99.90;;;;;;5093384;28;20044;-70
2023/08/14 02:24:39;;;;;;;7.53;3.87;;;15.80;99.90;;;;;;5092514;28;20036;-70
2023/08/14 02:27:05;;;;;;;7.20;3.80;;;15.90;99.90;;;;;;5093301;28;20051;-70
2023/08/14 02:29:31;;;;;;;6.67;3.80;;;15.80;99.90;;;;;;5093564;28;20040;-70
2023/08/14 02:31:56;;;;;;;8.13;4.70;;;15.80;99.90;;;;;;5092576;28;20047;-70
2023/08/14 02:34:42;;;;;;;8.07;4.27;;;15.80;99.90;;;;;;5093106;28;20052;-70
2023/08/14 02:37:08;;;;;;;6.27;3.90;;;15.80;99.90;;;;;;5093182;28;20047;-70
2023/08/14 02:39:34;;;;;;;9.70;4.37;;;15.80;99.90;;;;;;5092472;28;20040;-70
2023/08/14 02:42:00;;;;;;;10.77;4.90;;;15.80;99.90;;;;;;5093131;28;20054;-70
2023/08/14 02:44:25;;;;;;;7.13;4.20;;;15.80;99.90;;;;;;5092348;28;20460;-70
2023/08/14 02:46:53;;;;;;;7.07;4.50;;;15.80;99.90;;;;;;5075450;28;20047;-70
2023/08/14 02:49:19;;;;;;;6.87;4.03;;;15.80;99.90;;;;;;5091802;28;20180;-70
2023/08/14 02:51:44;;;;;;;9.47;4.93;;;15.70;99.90;;;;;;5093532;28;20123;-70
2023/08/14 02:54:10;;;;;;;7.80;4.20;;;15.70;99.90;;;;;;5092878;28;20086;-70
2023/08/14 02:56:36;;;;;;;8.07;4.40;;;15.70;99.90;;;;;;5093435;28;20040;-70
2023/08/14 02:59:02;;;;;;;7.20;4.33;;;15.70;99.90;;;;;;5092864;28;20035;-70
2023/08/14 03:01:28;;;;;;;7.07;4.40;;;15.70;99.90;;;;;;5091966;28;20066;-70
2023/08/14 03:03:54;;;;;;;10.77;5.53;;;15.70;99.90;;;;;;5095378;28;20039;-70
2023/08/14 03:06:19;;;;;;;7.57;4.77;;;15.60;99.90;;;;;;5097048;28;20044;-70
2023/08/14 03:08:45;;;;;;;9.10;5.33;;;15.60;99.90;;;;;;5097301;28;20119;-69
2023/08/14 03:11:11;;;;;;;8.43;5.20;;;15.60;99.90;;;;;;5097023;28;20042;-70
2023/08/14 03:13:37;;;;;;;7.37;5.07;;;15.60;99.90;;;;;;5097181;28;20460;-70
2023/08/14 03:16:03;;;;;;;10.70;5.30;;;15.60;99.90;;;;;;5097013;28;20091;-70
2023/08/14 03:18:28;;;;;;;8.43;4.97;;;15.50;99.90;;;;;;5097071;28;20383;-70
2023/08/14 03:20:54;;;;;;;8.13;4.80;;;15.60;99.90;;;;;;5096733;28;20040;-70
2023/08/14 03:23:20;;;;;;;9.63;5.30;;;15.50;99.90;;;;;;5096712;28;20047;-70
2023/08/14 03:25:45;;;;;;;8.47;5.53;;;15.50;99.90;;;;;;5096878;28;20044;-70
2023/08/14 03:28:11;;;;;;;8.37;5.50;;;15.50;99.90;;;;;;5096516;28;20040;-70
2023/08/14 03:30:42;;;;;;;9.73;5.40;;;15.50;99.90;;;;;;5078986;28;20401;-70
2023/08/14 03:33:07;;;;;;;6.97;5.23;;;15.50;99.90;;;;;;5096118;28;20055;-70
2023/08/14 03:35:33;;;;;;;8.73;5.93;;;15.50;99.90;;;;;;5096538;28;20048;-70
2023/08/14 03:37:59;;;;;;;8.50;5.90;;;15.40;99.90;;;;;;5096545;28;20039;-69
2023/08/14 03:40:25;;;;;;;12.07;6.67;;;15.40;99.90;;;;;;5096392;28;20201;-70
2023/08/14 03:42:50;;;;;;;9.80;6.30;;;15.40;99.90;;;;;;5096619;28;20372;-70
2023/08/14 03:45:16;;;;;;;8.80;6.00;;;15.40;99.90;;;;;;5096260;28;20039;-70
2023/08/14 03:47:42;;;;;;;11.03;7.43;;;15.40;99.90;;;;;;5096542;28;20040;-70
2023/08/14 03:50:08;;;;;;;10.13;6.00;;;15.40;99.90;;;;;;5096252;28;20461;-70
2023/08/14 03:52:34;;;;;;;9.47;7.40;;;15.40;99.90;;;;;;5096434;28;20050;-70
2023/08/14 03:54:59;;;;;;;8.93;6.60;;;15.40;99.90;;;;;;5096291;28;20075;-70
2023/08/14 03:57:25;;;;;;;11.97;7.47;;;15.40;99.90;;;;;;5096093;28;20051;-70
2023/08/14 03:59:51;;;;;;;12.87;7.60;;;15.40;99.90;;;;;;5096380;28;20040;-70
2023/08/14 04:02:17;;;;;;;10.07;6.87;;;15.30;99.90;;;;;;5096029;28;20453;-70
2023/08/14 04:04:42;;;;;;;10.90;6.97;;;15.30;99.90;;;;;;5096214;28;20123;-70
2023/08/14 04:07:08;;;;;;;11.20;8.00;;;15.30;99.90;;;;;;5096178;28;20086;-70
2023/08/14 04:09:34;;;;;;;10.30;7.93;;;15.30;99.90;;;;;;5095909;28;20044;-70
2023/08/14 04:12:02;;;;;;;11.43;7.50;;;15.20;99.90;;;;;;5096194;28;20375;-70
2023/08/14 04:14:29;;;;;;;10.00;7.60;;;15.20;99.90;;;;;;5094567;28;20097;-70
2023/08/14 04:16:55;;;;;;;10.93;8.63;;;15.20;99.90;;;;;;5095792;28;20051;-70
2023/08/14 04:19:22;;;;;;;10.93;8.00;;;15.10;99.90;;;;;;5095734;28;20040;-70
2023/08/14 04:21:48;;;;;;;10.30;7.00;;;15.10;99.90;;;;;;5095908;28;20164;-70
2023/08/14 04:24:13;;;;;;;12.13;8.00;;;15.10;99.90;;;;;;5095678;28;20119;-70
2023/08/14 04:26:39;;;;;;;10.20;8.00;;;15.10;99.90;;;;;;5096108;28;20440;-70
2023/08/14 04:29:06;;;;;;;12.47;7.87;;;15.10;99.90;;;;;;5095905;28;20044;-70
2023/08/14 04:31:36;;;;;;;10.00;7.60;;;15.10;99.90;;;;;;5095466;28;20210;-70
2023/08/14 04:34:03;;;;;;;10.87;7.73;;;15.20;99.90;;;;;;5095286;28;20074;-70
2023/08/14 04:36:31;;;;;;;11.60;8.50;;;15.10;99.90;;;;;;5094182;28;20095;-70
2023/08/14 04:38:57;;;;;;;8.60;7.13;;;15.20;99.90;;;;;;5095646;28;20052;-70
2023/08/14 04:41:23;;;;;;;12.50;7.80;;;15.10;99.90;;;;;;5095238;28;20046;-69
2023/08/14 04:43:49;;;;;;;11.27;7.83;;;15.20;99.90;;;;;;5095479;28;20035;-70
2023/08/14 04:46:34;;;;;;;11.40;7.30;;;15.20;99.90;;;;;;5095203;28;20062;-70
2023/08/14 04:49:01;;;;;;;13.68;7.97;;;15.30;99.90;;;;;;5095391;28;20048;-69
2023/08/14 04:51:27;;;;;;;10.60;8.23;;;15.20;99.90;;;;;;5094128;28;20048;-70
2023/08/14 04:53:57;;;;;;;10.70;8.13;;;15.30;99.90;;;;;;5095230;28;20032;-70
2023/08/14 04:56:23;;;;;;;10.80;8.43;;;15.30;99.90;;;;;;5094931;28;20097;-70
2023/08/14 04:58:49;;;;;;;11.27;7.63;;;15.30;99.90;;;;;;5095211;28;20048;-70
2023/08/14 05:01:15;;;;;;;12.27;8.10;;;15.30;99.90;;;;;;5095096;28;20047;-70
2023/08/14 05:03:41;;;;;;;11.43;8.33;;;15.30;99.90;;;;;;5093801;28;20036;-70
2023/08/14 05:06:07;;;;;;;8.93;7.30;;;15.30;99.90;;;;;;5094066;28;20048;-70
2023/08/14 05:08:33;;;;;;;11.73;7.57;;;15.40;99.90;;;;;;5094707;28;20040;-70
2023/08/14 05:10:58;;;;;;;9.20;7.30;;;15.40;99.90;;;;;;5093998;28;20051;-70
2023/08/14 05:13:24;;;;;;;10.00;7.70;;;15.40;99.90;;;;;;5093431;28;20032;-70
2023/08/14 05:15:51;;;;;;;13.37;7.30;;;15.50;99.90;;;;;;5094905;28;20044;-70
2023/08/14 05:18:17;;;;;;;11.70;8.27;;;15.50;99.90;;;;;;5094783;28;20044;-70
2023/08/14 05:20:47;;;;;;;10.97;7.47;;;15.50;99.90;;;;;;5094930;28;20050;-70
2023/08/14 05:23:13;;;;;;;10.97;7.30;;;15.60;99.90;;;;;;5094638;28;20036;-70
2023/08/14 05:25:41;;;;;;;12.30;7.30;;;15.70;99.90;;;;;;5093758;28;20131;-70
2023/08/14 05:28:07;;;;;;;10.37;7.20;;;15.70;99.90;;;;;;5093606;28;20123;-70
2023/08/14 05:30:33;;;;;;;12.53;7.50;;;15.80;99.90;;;;;;5093103;28;20119;-70
2023/08/14 05:32:59;;;;;;;9.37;7.60;;;15.80;99.90;;;;;;5094291;28;20062;-70
2023/08/14 05:35:24;;;;;;;9.77;7.90;;;15.90;99.90;;;;;;5093791;28;20056;-72
2023/08/14 05:37:56;;;;;;;8.77;7.33;;;15.90;99.90;;;;;;5094410;28;20048;-72
2023/08/14 05:40:25;;;;;;;9.90;7.73;;;16.00;99.90;;;;;;5094129;28;20046;-73
2023/08/14 05:43:04;;;;;;;14.23;7.50;;;16.00;99.90;;;;;;5093388;28;20036;-74
2023/08/14 05:45:31;;;;;;;11.63;7.33;;;16.10;99.90;;;;;;5094003;28;20048;-74
2023/08/14 05:47:57;;;;;;;10.40;7.17;;;16.10;99.90;;;;;;5094258;28;20079;-73
2023/08/14 05:50:25;;;;;;;14.70;7.37;;;16.20;99.90;;;;;;5092906;28;20082;-73
2023/08/14 05:52:51;;;;;;;13.93;7.90;;;16.30;99.90;;;;;;5093728;28;20484;-73
2023/08/14 05:55:17;;;;;;;11.10;7.93;;;16.30;99.90;;;;;;5093949;28;20418;-74
2023/08/14 05:57:42;;;;;;;11.43;7.17;;;16.40;99.90;;;;;;5093764;28;20044;-73
2023/08/14 06:00:11;;;;;;;10.77;7.10;;;16.40;99.90;;;;;;5094015;28;20126;-71
2023/08/14 06:02:37;;;;;;;12.23;7.13;;;16.50;99.90;;;;;;5093260;28;20085;-73
2023/08/14 06:05:04;;;;;;;10.73;7.17;;;16.50;99.90;;;;;;5092381;28;20040;-73
2023/08/14 06:07:29;;;;;;;10.40;6.73;;;16.60;99.90;;;;;;5093413;28;20039;-73
2023/08/14 06:09:55;;;;;;;10.77;7.20;;;16.70;99.90;;;;;;5093903;28;20040;-73
2023/08/14 06:12:21;;;;;;;11.30;7.40;;;16.90;99.90;;;;;;5094067;28;20055;-73
2023/08/14 06:14:47;;;;;;;12.60;7.37;;;16.90;99.90;;;;;;5093442;28;20040;-73
2023/08/14 06:17:12;;;;;;;8.87;6.83;;;17.00;99.90;;;;;;5093750;28;20085;-73
2023/08/14 06:19:38;;;;;;;8.50;6.47;;;17.00;99.90;;;;;;5093883;28;20496;-73
2023/08/14 06:22:05;;;;;;;10.27;6.67;;;17.10;99.90;;;;;;5094022;28;20044;-73
2023/08/14 06:24:30;;;;;;;10.67;6.10;;;17.10;99.90;;;;;;5093626;28;20048;-73
2023/08/14 06:26:56;;;;;;;10.87;6.43;;;17.10;99.90;;;;;;5092929;28;20040;-74
2023/08/14 06:29:22;;;;;;;11.37;6.27;;;17.20;99.90;;;;;;5093590;28;20471;-73
2023/08/14 06:31:48;;;;;;;10.77;6.27;;;17.20;99.90;;;;;;5093494;28;20071;-73
2023/08/14 06:34:14;;;;;;;10.10;6.13;;;17.30;99.90;;;;;;5093236;28;20549;-73
2023/08/14 06:36:39;;;;;;;9.83;6.10;;;17.40;99.90;;;;;;5093320;28;20044;-73
2023/08/14 06:39:05;;;;;;;9.70;6.00;;;17.50;99.90;;;;;;5092826;28;20052;-73
2023/08/14 06:41:31;;;;;;;9.07;6.17;;;17.60;99.90;;;;;;5093403;28;20040;-73
2023/08/14 06:43:57;;;;;;;10.63;5.77;;;17.80;99.90;;;;;;5093505;28;20119;-73
2023/08/14 06:46:23;;;;;;;10.83;6.07;;;18.00;99.90;;;;;;5093392;28;20413;-73
2023/08/14 06:48:48;;;;;;;11.37;5.57;;;18.20;99.90;;;;;;5093290;28;20040;-73
2023/08/14 06:51:14;;;;;;;11.23;5.87;;;18.40;99.90;;;;;;5093617;28;20521;-73
2023/08/14 06:53:40;;;;;;;8.53;5.37;;;18.60;99.90;;;;;;5075239;28;20048;-73
2023/08/14 06:56:05;;;;;;;8.90;5.53;;;18.90;99.90;;;;;;5093388;28;20144;-74
2023/08/14 06:58:31;;;;;;;6.90;4.90;;;19.20;99.90;;;;;;5093157;28;20040;-73
2023/08/14 07:00:57;;;;;;;9.20;5.23;;;19.50;99.90;;;;;;5093333;28;20472;-74
2023/08/14 07:03:22;;;;;;;8.80;5.17;;;19.90;99.90;;;;;;5092353;28;20472;-73
2023/08/14 07:05:48;;;;;;;9.40;5.00;;;20.20;99.90;;;;;;5093057;28;20044;-73
2023/08/14 07:08:14;;;;;;;8.27;4.27;;;20.50;99.90;;;;;;5092509;28;20044;-73
2023/08/14 07:10:40;;;;;;;7.87;4.50;;;20.60;99.90;;;;;;5093035;28;20043;-73
2023/08/14 07:13:08;;;;;;;8.70;4.93;;;20.80;99.90;;;;;;5093114;28;20075;-73
2023/08/14 07:15:34;;;;;;;8.90;4.37;;;20.90;99.90;;;;;;5092972;28;20498;-73
2023/08/14 07:18:00;;;;;;;8.67;4.60;;;20.90;99.90;;;;;;5093399;28;20087;-73
2023/08/14 07:20:26;;;;;;;6.10;3.77;;;20.90;99.90;;;;;;5093134;28;20039;-73
2023/08/14 07:22:53;;;;;;;8.87;3.57;;;21.00;99.90;;;;;;5092882;28;20048;-73
2023/08/14 07:25:19;;;;;;;7.67;3.23;;;21.30;99.90;;;;;;5093021;28;20472;-74
2023/08/14 07:27:44;;;;;;;7.63;3.30;;;21.60;99.90;;;;;;5092826;28;20047;-73
2023/08/14 07:30:10;;;;;;;5.93;3.47;;;21.70;99.90;;;;;;5091990;28;20047;-73
2023/08/14 07:32:36;;;;;;;5.67;3.17;;;21.70;99.90;;;;;;5092898;28;20078;-73
2023/08/14 07:35:03;;;;;;;7.07;3.00;;;21.50;99.90;;;;;;5092323;28;20488;-73
2023/08/14 07:37:29;;;;;;;6.93;3.20;;;21.40;99.90;;;;;;5093018;28;20040;-73
2023/08/14 07:39:54;;;;;;;5.23;2.30;;;21.20;99.90;;;;;;5092706;28;20047;-73
2023/08/14 07:42:20;;;;;;;6.53;2.30;;;21.10;99.90;;;;;;5091759;28;20460;-74
2023/08/14 07:44:46;;;;;;;5.97;2.67;;;21.00;99.90;;;;;;5092449;28;20495;-73
2023/08/14 07:47:12;;;;;;;6.43;2.27;;;21.00;99.90;;;;;;5092879;28;20040;-73
2023/08/14 07:49:38;;;;;;;4.90;2.33;;;20.90;99.90;;;;;;5094282;28;20054;-73
2023/08/14 07:52:05;;;;;;;7.07;2.30;;;20.90;99.90;;;;;;5096751;28;20117;-73
2023/08/14 07:54:31;;;;;;;4.23;1.90;;;20.90;99.90;;;;;;5096575;28;20036;-74
2023/08/14 07:56:57;;;;;;;4.97;2.20;;;20.90;99.90;;;;;;5096407;28;20054;-73
2023/08/14 07:59:23;;;;;;;5.07;2.20;;;21.10;99.90;;;;;;5096846;28;20119;-73
2023/08/14 08:01:49;;;;;;;5.13;2.20;;;21.40;99.90;;;;;;5096635;28;20395;-74
2023/08/14 08:04:14;;;;;;;5.13;2.50;;;21.60;99.90;;;;;;5096508;28;20032;-73
2023/08/14 08:06:40;;;;;;;6.57;2.00;;;22.00;99.90;;;;;;5096227;28;20104;-73
2023/08/14 08:09:07;;;;;;;4.57;1.90;;;22.30;99.90;;;;;;5096642;28;20047;-73
2023/08/14 08:11:33;;;;;;;5.37;2.33;;;22.50;99.90;;;;;;5096293;28;20044;-73
2023/08/14 08:14:05;;;;;;;5.30;2.00;;;22.60;99.90;;;;;;5096027;28;20040;-73
2023/08/14 08:16:36;;;;;;;5.70;2.33;;;22.60;99.90;;;;;;5096341;28;20047;-73
2023/08/14 08:19:04;;;;;;;5.63;2.37;;;22.50;99.90;;;;;;5094931;28;20055;-73
2023/08/14 08:21:30;;;;;;;4.73;2.13;;;22.30;99.90;;;;;;5096173;28;20040;-73
2023/08/14 08:23:56;;;;;;;3.93;1.73;;;22.20;99.90;;;;;;5094816;28;20134;-73
2023/08/14 08:26:22;;;;;;;7.30;2.37;;;22.10;99.90;;;;;;5094914;28;20106;-73
2023/08/14 08:28:48;;;;;;;5.43;2.20;;;22.10;99.90;;;;;;5095843;28;20047;-73
2023/08/14 08:31:14;;;;;;;5.77;2.23;;;22.10;99.90;;;;;;5095829;28;20043;-73
2023/08/14 08:33:40;;;;;;;5.33;2.00;;;22.10;99.90;;;;;;5077373;28;20070;-72
2023/08/14 08:36:06;;;;;;;5.37;2.00;;;22.30;99.90;;;;;;5096021;28;20484;-72
2023/08/14 08:38:31;;;;;;;6.43;2.30;;;22.40;99.90;;;;;;5095748;28;20047;-73
2023/08/14 08:41:00;;;;;;;4.53;2.20;;;22.50;99.90;;;;;;5095495;28;20472;-73
2023/08/14 08:43:27;;;;;;;4.83;2.23;;;22.60;99.90;;;;;;5095870;28;20501;-73
2023/08/14 08:45:57;;;;;;;6.53;2.00;;;22.50;99.90;;;;;;5095528;28;20371;-73
2023/08/14 08:48:24;;;;;;;6.50;2.00;;;22.60;99.90;;;;;;5095784;28;20138;-73
2023/08/14 08:50:50;;;;;;;5.13;2.30;;;22.60;99.90;;;;;;5095056;28;20441;-73
2023/08/14 08:53:20;;;;;;;4.53;1.70;;;22.70;99.90;;;;;;5094459;28;20059;-73
2023/08/14 08:55:47;;;;;;;6.87;1.90;;;22.90;99.90;;;;;;5095225;28;20048;-73
2023/08/14 08:58:17;;;;;;;7.33;2.13;;;23.00;99.90;;;;;;5077587;28;20058;-73
2023/08/14 09:00:43;;;;;;;4.60;1.70;;;23.10;99.90;;;;;;5094623;28;20043;-73
2023/08/14 09:03:10;;;;;;;4.33;1.70;;;23.10;99.90;;;;;;5095362;28;20040;-73
2023/08/14 09:05:36;;;;;;;7.60;1.60;;;23.00;99.90;;;;;;5095208;28;20488;-73
2023/08/14 09:08:03;;;;;;;5.30;1.80;;;22.80;99.90;;;;;;5093691;28;20127;-73
2023/08/14 09:10:29;;;;;;;4.30;1.80;;;22.70;99.90;;;;;;5095279;28;20348;-74
2023/08/14 09:12:55;;;;;;;5.23;1.97;;;22.60;99.90;;;;;;5094724;28;20040;-73
2023/08/14 09:15:23;;;;;;;6.80;1.97;;;22.70;99.90;;;;;;5095041;28;20075;-73
2023/08/14 09:17:53;;;;;;;4.87;1.53;;;22.80;99.90;;;;;;5094886;28;20044;-73
2023/08/14 09:20:19;;;;;;;3.83;1.50;;;22.80;99.90;;;;;;5095082;28;20177;-73
2023/08/14 09:22:46;;;;;;;6.13;2.23;;;22.80;99.90;;;;;;5095041;28;20040;-73
2023/08/14 09:25:13;;;;;;;4.90;1.80;;;22.90;99.90;;;;;;5095041;28;20044;-73
2023/08/14 09:27:39;;;;;;;5.70;1.60;;;22.90;99.90;;;;;;5095159;28;20039;-73
2023/08/14 09:30:06;;;;;;;5.30;1.63;;;22.90;99.90;;;;;;5093408;28;20036;-73
2023/08/14 09:32:32;;;;;;;5.97;1.87;;;22.90;99.90;;;;;;5094821;28;20044;-73
2023/08/14 09:35:03;;;;;;;4.03;1.43;;;23.00;99.90;;;;;;5094462;28;20207;-73
2023/08/14 09:37:29;;;;;;;4.53;1.30;;;23.10;99.90;;;;;;5094880;28;20040;-73
2023/08/14 09:40:08;;;;;;;6.00;2.03;;;23.20;99.90;;;;;;5094456;28;20119;-73
2023/08/14 09:42:34;;;;;;;3.40;1.70;;;23.30;99.90;;;;;;5094812;28;20047;-73
2023/08/14 09:45:00;;;;;;;4.80;1.50;;;23.40;99.90;;;;;;5094377;28;20040;-73
2023/08/14 09:47:26;;;;;;;3.27;1.47;;;23.40;99.90;;;;;;5094386;28;20056;-73
2023/08/14 09:49:56;;;;;;;3.83;1.90;;;23.50;99.90;;;;;;5094303;28;20044;-73
2023/08/14 09:52:23;;;;;;;6.17;2.00;;;23.60;99.90;;;;;;5094607;28;20035;-74
2023/08/14 09:54:50;;;;;;;3.93;1.57;;;23.80;99.90;;;;;;5094146;28;20123;-73
2023/08/14 09:57:17;;;;;;;4.50;1.57;;;23.90;99.90;;;;;;5094031;28;20511;-73
2023/08/14 09:59:43;;;;;;;4.53;1.40;;;24.00;99.90;;;;;;5094202;28;20091;-73
2023/08/14 10:02:15;;;;;;;4.87;1.47;;;24.10;99.90;;;;;;5094023;28;20097;-73
2023/08/14 10:04:45;;;;;;;4.60;1.27;;;24.10;99.90;;;;;;5094432;28;20093;-74
2023/08/14 10:07:13;;;;;;;5.93;1.67;;;24.10;99.90;;;;;;5093979;28;20052;-73
2023/08/14 10:09:43;;;;;;;4.60;1.50;;;24.10;99.90;;;;;;5092656;28;20479;-73
2023/08/14 10:12:13;;;;;;;5.60;2.00;;;24.20;99.90;;;;;;5093857;28;20051;-73
2023/08/14 10:14:42;;;;;;;7.00;1.80;;;24.30;99.90;;;;;;5093895;28;20528;-73
2023/08/14 10:17:21;;;;;;;2.70;1.13;;;24.30;99.90;;;;;;5093757;28;20040;-74
2023/08/14 10:19:51;;;;;;;4.80;1.40;;;24.40;99.90;;;;;;5094246;28;20075;-74
2023/08/14 10:22:19;;;;;;;4.53;1.40;;;24.40;99.90;;;;;;5092482;28;20058;-73
2023/08/14 10:24:46;;;;;;;5.90;1.70;;;24.40;99.70;;;;;;5093859;28;20047;-74
2023/08/14 10:27:12;;;;;;;6.53;1.60;;;24.40;99.70;;;;;;5093598;28;20043;-73
2023/08/14 10:29:39;;;;;;;4.60;1.60;;;24.40;99.90;;;;;;5092589;28;20036;-74
2023/08/14 10:32:06;;;;;;;4.00;1.40;;;24.40;99.90;;;;;;5093570;28;20040;-73
2023/08/14 10:34:33;;;;;;;8.27;2.10;;;24.40;99.50;;;;;;5093210;28;20056;-73
2023/08/14 10:36:58;;;;;;;4.53;1.60;;;24.40;99.60;;;;;;5093553;28;20055;-73
2023/08/14 10:39:35;;;;;;;5.90;2.03;;;24.50;99.50;;;;;;5092545;28;20036;-73
2023/08/14 10:42:05;;;;;;;4.40;1.43;;;24.50;98.70;;;;;;5093593;28;20070;-73
2023/08/14 10:44:43;;;;;;;4.27;1.40;;;24.50;99.40;;;;;;5093603;28;20047;-73
2023/08/14 10:47:12;;;;;;;5.70;1.40;;;24.50;99.10;;;;;;5093296;28;20043;-74
2023/08/14 10:49:49;;;;;;;3.63;1.30;;;24.50;98.50;;;;;;5093661;28;20055;-73
2023/08/14 10:52:16;;;;;;;4.70;1.67;;;24.50;99.60;;;;;;5093356;28;20051;-74
2023/08/14 10:54:48;;;;;;;5.73;1.63;;;24.50;98.90;;;;;;5092197;28;20036;-73
2023/08/14 10:57:14;;;;;;;4.20;1.67;;;24.40;99.10;;;;;;5093317;28;20040;-74
2023/08/14 10:59:41;;;;;;;6.07;1.43;;;24.40;99.10;;;;;;5093369;28;20040;-73
2023/08/14 11:02:10;;;;;;;5.50;1.30;;;24.40;99.00;;;;;;5093211;28;20079;-74
2023/08/14 11:05:10;;;;;;;3.83;1.70;;;24.40;98.50;;;;;;5093650;28;20113;-73
2023/08/14 11:07:36;;;;;;;4.37;1.40;;;24.30;98.60;;;;;;5093666;28;20115;-73
2023/08/14 11:10:05;;;;;;;3.83;1.30;;;24.30;98.20;;;;;;5093026;28;20123;-73
2023/08/14 11:12:32;;;;;;;4.27;1.50;;;24.20;99.50;;;;;;5093319;28;20040;-73
2023/08/14 11:14:58;;;;;;;5.10;2.03;;;24.20;98.50;;;;;;5093113;28;20121;-74
2023/08/14 11:17:27;;;;;;;4.73;1.40;;;24.20;98.90;;;;;;5092252;28;20464;-74
2023/08/14 11:19:53;;;;;;;6.93;1.63;;;24.10;99.30;;;;;;5093219;28;20079;-74
2023/08/14 11:22:22;;;;;;;3.63;1.30;;;24.20;99.90;;;;;;5093026;28;20044;-74
2023/08/14 11:24:48;;;;;;;4.27;1.30;;;24.20;99.90;;;;;;5095246;28;20032;-74
2023/08/14 11:27:14;;;;;;;3.67;1.50;;;24.10;99.90;;;;;;5095836;28;20059;-73
2023/08/14 11:29:39;;;;;;;5.67;1.50;;;24.10;99.30;;;;;;5096845;28;20365;-73
2023/08/14 11:32:05;;;;;;;5.33;1.60;;;23.90;99.10;;;;;;5096962;28;20036;-73
2023/08/14 11:34:33;;;;;;;4.37;1.40;;;23.90;99.90;;;;;;5096946;28;20468;-73
2023/08/14 11:37:04;;;;;;;4.97;1.80;;;24.00;99.90;;;;;;5097009;28;20043;-73
2023/08/14 11:39:31;;;;;;;5.70;1.40;;;24.10;99.90;;;;;;5097028;28;20126;-73
2023/08/14 11:41:57;;;;;;;3.30;1.47;;;24.20;99.90;;;;;;5095859;28;20054;-73
2023/08/14 11:44:22;;;;;;;3.50;1.47;;;24.20;99.90;;;;;;5096623;28;20114;-74
2023/08/14 11:46:50;;;;;;;3.73;1.50;;;24.10;99.20;;;;;;5096797;28;20097;-74
2023/08/14 11:49:16;;;;;;;5.40;1.53;;;24.10;98.80;;;;;;5096936;28;20364;-74
2023/08/14 11:51:44;;;;;;;5.37;1.60;;;24.10;98.90;;;;;;5096751;28;20047;-74
2023/08/14 11:54:10;;;;;;;4.97;1.53;;;24.00;98.90;;;;;;5096400;28;20035;-74
2023/08/14 11:56:37;;;;;;;4.27;1.23;;;23.90;99.10;;;;;;5095701;28;20047;-74
2023/08/14 11:59:05;;;;;;;4.03;1.50;;;23.90;99.30;;;;;;5096104;28;20544;-74
2023/08/14 12:01:34;;;;;;;4.73;1.50;;;24.00;99.80;;;;;;5096518;28;20126;-74
2023/08/14 12:04:00;;;;;;;5.23;1.50;;;24.10;99.90;;;;;;5095524;28;20422;-73
2023/08/14 12:06:26;;;;;;;3.57;1.30;;;24.10;99.50;;;;;;5095130;28;20055;-73
2023/08/14 12:08:52;;;;;;;3.80;1.50;;;24.20;99.80;;;;;;5095524;28;20047;-73
2023/08/14 12:11:18;;;;;;;4.13;1.50;;;24.20;99.90;;;;;;5096145;28;20040;-74
2023/08/14 12:13:51;;;;;;;3.83;1.63;;;24.30;99.90;;;;;;5096257;28;20078;-73
2023/08/14 12:16:20;;;;;;;4.03;1.60;;;24.30;99.60;;;;;;5096170;28;20055;-73
2023/08/14 12:18:46;;;;;;;4.10;1.40;;;24.40;99.60;;;;;;5096258;28;20039;-74
2023/08/14 12:21:12;;;;;;;4.37;1.37;;;24.40;99.40;;;;;;5095975;28;20097;-73
2023/08/14 12:23:46;;;;;;;5.53;1.60;;;24.30;99.20;;;;;;5096208;28;20578;-74
2023/08/14 12:26:12;;;;;;;3.73;2.00;;;24.40;99.10;;;;;;5095974;28;20122;-73
2023/08/14 12:28:39;;;;;;;7.53;2.23;;;24.40;99.30;;;;;;5094829;28;20586;-74
2023/08/14 12:31:05;;;;;;;4.47;1.57;;;24.40;99.20;;;;;;5095967;28;20040;-73
2023/08/14 12:33:30;;;;;;;4.40;1.83;;;24.40;99.30;;;;;;5095738;28;20028;-73
2023/08/14 12:35:56;;;;;;;6.23;1.40;;;24.50;99.40;;;;;;5093657;28;20048;-74
2023/08/14 12:38:22;;;;;;;6.83;1.70;;;24.50;99.60;;;;;;5095381;28;20040;-73
2023/08/14 12:40:48;;;;;;;6.07;1.70;;;24.60;99.20;;;;;;5095722;28;20081;-73
2023/08/14 12:43:13;;;;;;;5.73;2.00;;;24.60;99.20;;;;;;5095694;28;20043;-74
2023/08/14 12:45:39;;;;;;;5.50;1.80;;;24.50;99.50;;;;;;5094845;28;20044;-73